createdAt,value
2023-07-29T00:03:25.097Z,100032.28
2023-07-29T00:08:27.953Z,100029.16
2023-07-29T00:13:30.623Z,100021.00
2023-07-29T00:18:33.538Z,100040.25
2023-07-29T00:23:36.190Z,100061.88
2023-07-29T00:28:38.869Z,100079.81
2023-07-29T00:33:41.552Z,100114.09
2023-07-29T00:38:44.221Z,100121.53
2023-07-29T00:43:46.986Z,100122.34
2023-07-29T00:48:50.160Z,100127.25
2023-07-29T00:53:53.178Z,100137.47
2023-07-29T00:59:00.195Z,100130.56
2023-07-29T01:04:03.657Z,100129.38
2023-07-29T01:09:10.496Z,100118.41
2023-07-29T01:14:16.189Z,100055.84
2023-07-29T01:19:52.654Z,100086.66
2023-07-29T01:24:55.258Z,100109.03
2023-07-29T01:35:10.067Z,100156.25
2023-07-29T01:40:12.995Z,100168.88
2023-07-29T01:45:17.035Z,100168.03
2023-07-29T01:50:20.991Z,100157.53
2023-07-29T01:55:23.747Z,100153.81
2023-07-29T02:00:26.401Z,100137.16
2023-07-29T02:05:29.345Z,100120.56
2023-07-29T02:10:32.080Z,100140.84
2023-07-29T02:15:35.243Z,100127.88
2023-07-29T02:20:40.228Z,100136.00
2023-07-29T02:25:42.942Z,100130.72
2023-07-29T02:30:46.382Z,100146.16
2023-07-29T02:35:50.124Z,100137.22
2023-07-29T02:40:52.772Z,100138.00
2023-07-29T02:45:55.486Z,100139.63
2023-07-29T02:50:58.154Z,100151.44
2023-07-29T02:56:00.839Z,100144.50
2023-07-29T03:01:07.969Z,100135.59
2023-07-29T03:06:15.461Z,100137.19
2023-07-29T03:11:18.464Z,100137.91
2023-07-29T03:16:21.447Z,100120.03
2023-07-29T03:21:30.469Z,100098.03
2023-07-29T03:26:33.165Z,100113.00
2023-07-29T03:31:36.053Z,100131.50
2023-07-29T03:36:39.082Z,100135.44
2023-07-29T03:41:41.859Z,100136.31
2023-07-29T03:46:44.536Z,100129.34
2023-07-29T03:51:47.595Z,100113.19
2023-07-29T03:56:50.437Z,100103.91
2023-07-29T04:01:53.057Z,100104.00
2023-07-29T04:06:55.859Z,100095.13
2023-07-29T04:11:58.618Z,100102.75
2023-07-29T04:17:01.276Z,100100.22
2023-07-29T04:22:04.049Z,100101.97
2023-07-29T04:27:06.916Z,100098.50
2023-07-29T04:32:09.554Z,100111.81
2023-07-29T04:37:12.212Z,100097.00
2023-07-29T04:42:14.937Z,100114.84
2023-07-29T04:47:17.741Z,100101.94
2023-07-29T04:52:21.143Z,100091.75
2023-07-29T04:57:23.592Z,100113.47
2023-07-29T05:02:26.093Z,100086.50
2023-07-29T05:07:28.674Z,100092.97
2023-07-29T05:12:31.427Z,100076.34
2023-07-29T05:17:34.227Z,100077.94
2023-07-29T05:22:36.862Z,100083.91
2023-07-29T05:27:39.536Z,100078.19
2023-07-29T05:32:42.444Z,100082.25
2023-07-29T05:37:45.222Z,100072.53
2023-07-29T05:42:49.237Z,100069.28
2023-07-29T05:47:51.913Z,100073.91
2023-07-29T05:52:55.144Z,100075.50
2023-07-29T05:57:59.059Z,100072.50
2023-07-29T06:03:02.168Z,100056.38
2023-07-29T06:08:05.570Z,100061.44
2023-07-29T06:13:08.361Z,100059.25
2023-07-29T06:18:11.207Z,100050.94
2023-07-29T06:23:14.501Z,100055.00
2023-07-29T06:28:17.221Z,100053.53
2023-07-29T06:33:20.169Z,100065.25
2023-07-29T06:38:23.349Z,100063.16
2023-07-29T06:43:25.984Z,100075.69
2023-07-29T06:48:28.753Z,100068.53
2023-07-29T06:53:33.807Z,100066.22
2023-07-29T06:58:37.514Z,100062.13
2023-07-29T07:03:40.348Z,100048.84
2023-07-29T07:08:43.209Z,100058.25
2023-07-29T07:13:45.838Z,100049.72
2023-07-29T07:18:48.446Z,100046.22
2023-07-29T07:23:51.921Z,100012.19
2023-07-29T07:28:54.497Z,100000.88
2023-07-29T07:33:57.126Z,100016.25
2023-07-29T07:38:59.723Z,100015.44
2023-07-29T07:44:02.576Z,99994.47
2023-07-29T07:49:05.172Z,99981.25
2023-07-29T07:54:08.034Z,99986.38
2023-07-29T07:59:10.713Z,99970.88
2023-07-29T08:04:13.490Z,99989.16
2023-07-29T08:09:16.453Z,99991.28
2023-07-29T08:14:19.062Z,99987.34
2023-07-29T08:19:22.867Z,99997.41
2023-07-29T08:24:25.609Z,100020.47
2023-07-29T08:29:28.483Z,100062.44
2023-07-29T08:34:31.201Z,100068.53
2023-07-29T08:39:33.960Z,100041.06
2023-07-29T08:44:46.968Z,100026.22
2023-07-29T08:49:52.451Z,100019.19
2023-07-29T08:54:55.233Z,100005.13
2023-07-29T08:59:59.120Z,99986.25
2023-07-29T09:05:03.199Z,99981.69
2023-07-29T09:10:07.175Z,99975.75
2023-07-29T09:15:10.646Z,99977.50
2023-07-29T09:20:13.470Z,99979.88
2023-07-29T09:25:17.792Z,99959.75
2023-07-29T09:30:20.678Z,99968.81
2023-07-29T09:35:25.239Z,99942.63
2023-07-29T09:40:28.208Z,99947.66
2023-07-29T09:45:31.052Z,99962.19
2023-07-29T09:50:33.661Z,99968.75
2023-07-29T09:55:36.472Z,99956.28
2023-07-29T10:00:40.445Z,99957.75
2023-07-29T10:05:43.390Z,99956.81
2023-07-29T10:10:46.905Z,99950.53
2023-07-29T10:15:50.257Z,99940.50
2023-07-29T10:20:54.164Z,99956.13
2023-07-29T10:26:07.121Z,99945.97
2023-07-29T10:31:09.729Z,99963.56
2023-07-29T10:36:13.572Z,99969.94
2023-07-29T10:41:16.202Z,99978.69
2023-07-29T10:46:23.894Z,99988.41
2023-07-29T10:51:36.155Z,99998.00
2023-07-29T10:56:42.978Z,99985.34
2023-07-29T11:02:02.021Z,99979.00
2023-07-29T11:07:11.865Z,100011.06
2023-07-29T11:12:43.731Z,99995.19
2023-07-29T11:17:57.854Z,100012.56
2023-07-29T11:23:02.853Z,100001.41
2023-07-29T11:28:07.417Z,99997.31
2023-07-29T11:33:11.540Z,100005.44
2023-07-29T11:38:19.039Z,99989.94
2023-07-29T11:43:21.821Z,99991.34
2023-07-29T11:48:35.007Z,99987.25
2023-07-29T11:53:38.343Z,100003.47
2023-07-29T11:58:41.106Z,100011.16
2023-07-29T12:03:44.993Z,100012.06
2023-07-29T12:08:48.233Z,100009.06
2023-07-29T12:13:50.728Z,100009.09
2023-07-29T12:18:53.554Z,100023.03
2023-07-29T12:23:58.184Z,100019.84
2023-07-29T12:29:13.629Z,100018.53
2023-07-29T12:34:23.217Z,100020.09
2023-07-29T12:39:27.492Z,100028.97
2023-07-29T12:44:35.003Z,100029.47
2023-07-29T12:49:37.790Z,100023.53
2023-07-29T12:54:41.607Z,100016.81
2023-07-29T12:59:44.299Z,100011.81
2023-07-29T13:04:47.247Z,100018.50
2023-07-29T13:09:49.870Z,100008.25
2023-07-29T13:14:52.538Z,100017.19
2023-07-29T13:19:55.162Z,100030.78
2023-07-29T13:24:57.891Z,100033.16
2023-07-29T13:30:00.486Z,100033.38
2023-07-29T13:35:03.204Z,100039.44
2023-07-29T13:40:06.990Z,100050.88
2023-07-29T13:45:10.371Z,100051.34
2023-07-29T13:50:13.433Z,100052.13
2023-07-29T13:55:16.180Z,100062.31
2023-07-29T14:00:18.872Z,100054.34
2023-07-29T14:05:21.608Z,100060.44
2023-07-29T14:10:24.369Z,100057.69
2023-07-29T14:15:27.029Z,100054.91
2023-07-29T14:20:29.836Z,100075.69
2023-07-29T14:25:32.443Z,100080.91
2023-07-29T14:30:35.846Z,100071.66
2023-07-29T14:35:38.537Z,100077.59
2023-07-29T14:40:41.217Z,100083.44
2023-07-29T14:45:43.950Z,100094.16
2023-07-29T14:50:46.619Z,100114.19
2023-07-29T14:55:49.276Z,100121.22
2023-07-29T15:00:51.945Z,100125.63
2023-07-29T15:05:54.605Z,100128.72
2023-07-29T15:10:57.409Z,100126.50
2023-07-29T15:16:00.104Z,100130.81
2023-07-29T15:21:03.960Z,100130.91
2023-07-29T15:26:06.605Z,100135.75
2023-07-29T15:31:09.759Z,100137.16
2023-07-29T15:36:12.368Z,100157.41
2023-07-29T15:41:15.199Z,100147.72
2023-07-29T15:46:17.882Z,100162.41
2023-07-29T15:51:20.485Z,100162.72
2023-07-29T15:56:23.145Z,100170.59
2023-07-29T16:01:25.847Z,100184.53
2023-07-29T16:06:28.584Z,100187.03
2023-07-29T16:11:31.173Z,100197.06
2023-07-29T16:16:33.903Z,100196.84
2023-07-29T16:21:37.695Z,100215.38
2023-07-29T16:26:40.488Z,100220.31
2023-07-29T16:31:43.165Z,100225.81
2023-07-29T16:36:45.884Z,100230.34
2023-07-29T16:46:54.092Z,100250.47
2023-07-29T16:51:56.827Z,100242.00
2023-07-29T16:56:59.404Z,100265.25
2023-07-29T17:02:02.533Z,100267.31
2023-07-29T17:07:05.288Z,100279.94
2023-07-29T17:12:08.099Z,100269.34
2023-07-29T17:17:10.806Z,100279.47
2023-07-29T17:22:13.360Z,100287.53
2023-07-29T17:27:16.029Z,100282.63
2023-07-29T17:32:18.648Z,100288.72
2023-07-29T17:37:21.293Z,100290.31
2023-07-29T17:42:24.081Z,100300.06
2023-07-29T17:47:26.776Z,100301.66
2023-07-29T17:52:29.473Z,100293.59
2023-07-29T17:57:32.101Z,100289.16
2023-07-29T18:02:34.905Z,100297.81
2023-07-29T18:07:37.576Z,100302.41
2023-07-29T18:12:41.006Z,100301.31
2023-07-29T18:17:43.721Z,100310.31
2023-07-29T18:22:49.754Z,100325.78
2023-07-29T18:27:52.415Z,100328.22
2023-07-29T18:32:55.514Z,100337.22
2023-07-29T18:38:01.265Z,100328.63
2023-07-29T18:43:03.974Z,100328.22
2023-07-29T18:48:06.879Z,100335.16
2023-07-29T18:53:09.671Z,100327.38
2023-07-29T18:58:12.305Z,100333.53
2023-07-29T19:03:15.739Z,100336.44
2023-07-29T19:08:18.485Z,100337.69
2023-07-29T19:13:22.253Z,100340.97
2023-07-29T19:18:26.877Z,100349.56
2023-07-29T19:23:29.544Z,100346.72
2023-07-29T19:28:32.375Z,100351.59
2023-07-29T19:33:35.177Z,100355.28
2023-07-29T19:38:38.018Z,100357.31
2023-07-29T19:43:40.755Z,100362.19
2023-07-29T19:48:43.788Z,100367.06
2023-07-29T19:53:46.419Z,100366.25
2023-07-29T19:58:50.428Z,100368.66
2023-07-29T20:03:54.387Z,100376.78
2023-07-29T20:08:57.134Z,100379.59
2023-07-29T20:13:59.871Z,100386.94
2023-07-29T20:19:02.623Z,100390.97
2023-07-29T20:24:06.215Z,100378.81
2023-07-29T20:29:08.990Z,100376.34
2023-07-29T20:34:11.630Z,100380.81
2023-07-29T20:39:14.228Z,100375.97
2023-07-29T20:44:16.909Z,100368.63
2023-07-29T20:49:19.637Z,100371.91
2023-07-29T20:54:22.302Z,100365.38
2023-07-29T20:59:24.913Z,100365.38
2023-07-29T21:04:27.539Z,100375.53
2023-07-29T21:09:30.427Z,100383.22
2023-07-29T21:14:33.219Z,100384.84
2023-07-29T21:19:35.858Z,100384.06
2023-07-29T21:24:38.710Z,100388.50
2023-07-29T21:29:41.287Z,100392.97
2023-07-29T21:34:44.758Z,100392.13
2023-07-29T21:39:47.366Z,100405.53
2023-07-29T21:44:49.926Z,100400.25
2023-07-29T21:49:53.149Z,100408.31
2023-07-29T21:54:55.728Z,100420.50
2023-07-29T22:00:00.750Z,100405.84
2023-07-29T22:12:09.589Z,100422.00
2023-07-29T22:17:12.514Z,100422.00
2023-07-29T22:22:15.087Z,100424.00
2023-07-29T22:27:17.807Z,100414.63
2023-07-29T22:32:20.491Z,100417.06
2023-07-29T22:37:23.220Z,100428.78
2023-07-29T22:42:25.912Z,100420.66
2023-07-29T22:47:28.518Z,100424.72
2023-07-29T22:52:31.344Z,100422.31
2023-07-29T22:57:33.962Z,100427.50
2023-07-29T23:02:36.733Z,100438.03
2023-07-29T23:07:40.188Z,100430.34
2023-07-29T23:12:42.934Z,100429.94
2023-07-29T23:17:45.628Z,100438.00
2023-07-29T23:22:48.261Z,100420.97
2023-07-29T23:27:50.840Z,100437.56
2023-07-29T23:32:53.594Z,100446.88
2023-07-29T23:37:56.253Z,100444.84
2023-07-29T23:42:58.891Z,100437.13
2023-07-29T23:48:01.571Z,100441.19
2023-07-29T23:53:04.261Z,100427.41
2023-07-29T23:58:06.964Z,100430.31
